METAR AND TAF INFORMATION
METAR FOR LGKP
ADDS - METARS form results

(1808 UTC 21 July 2019)
Data provider http://aviationweather.gov/metar/data/
 
METAR text: LGKP 211750Z 31026G37KT CAVOK 25/20 Q1009
Conditions at: LGKP (KARPATHOS , GR) observed 1750 UTC 21 July 2019
Temperature: 25.0°C (77°F)
Dewpoint: 20.0°C (68°F) [RH = 74%]
Pressure (altimeter): 29.79 inches Hg (1009.0 mb)
Winds: from the NW (310 degrees) at 30 MPH (26 knots; 13.4 m/s)
gusting to 43 MPH (37 knots; 19.0 m/s)
Visibility: 6 or more miles (10+ km)
Ceiling: ceiling and visibility are OK
Clouds: unknown
Weather: no significant weather observed at this time

METAR text: LGKP 211720Z 31027G37KT CAVOK 25/20 Q1009
Conditions at: LGKP (KARPATHOS , GR) observed 1720 UTC 21 July 2019
Temperature: 25.0°C (77°F)
Dewpoint: 20.0°C (68°F) [RH = 74%]
Pressure (altimeter): 29.79 inches Hg (1009.0 mb)
Winds: from the NW (310 degrees) at 31 MPH (27 knots; 13.9 m/s)
gusting to 43 MPH (37 knots; 19.0 m/s)
Visibility: 6 or more miles (10+ km)
Ceiling: ceiling and visibility are OK
Clouds: unknown
Weather: no significant weather observed at this time

Forecast for: LGKP (KARPATHOS , GR)
Text: TAF LGKP 211700Z 2118/2203 31025G35KT 9999 FEW020
Forecast period: 1800 UTC 21 July 2019 to 0300 UTC 22 July 2019
Forecast type: FROM: standard forecast or significant change
Winds: from the NW (310 degrees) at 29 MPH (25 knots; 12.9 m/s)
gusting to 40 MPH (35 knots; 18.0 m/s)
Visibility: 6 or more miles 10+ km)
Ceiling: at least 12,000 feet AGL
Clouds: few clouds at 2000 feet AGL
Weather: no significant weather forecast for this period

 ΧΑΡΤΗΣ ΑΕΡΟΔΡΟΜΙΟΥ

 RUNWAY INFORMATION
Διάδρομος 12 Runway length 7871 ft Runway width 98 ft
Runway elevation 36 ft Runway displaced threshold 492 ft Runway heading 124
Διάδρομος 30 Runway length 7871 ft Runway width 98 ft
Runway elevation 62 ft Runway displaced threshold 492 ft Runway heading 304

 ΣΥΧΝΟΤΗΤΕΣ ΑΕΡΟΔΡΟΜΙΟΥ
Τύπος A/G Όνομα RDO Συχνότητα 563.7 MHZ
Τύπος INFO Όνομα INFO Συχνότητα 122.1 MHZ

 AIRPORT NEAR NAVIGATION AIDS
Τύπος NDB Όνομα Karpathos Συχνότητα 314 KHZ
Τύπος TACAN Όνομα Karpathos Συχνότητα 109600 KHZ



Hellenic Air Force Virtual - All rights reserved 2019 - Powered by VAM